sensor_id;sensor_type;location;lat;lon;timestamp;P1;durP1;ratioP1;P2;durP2;ratioP2
16127;SDS011;8168;49.036;7.690;2023-02-07T00:02:24;2.13;;;1.47;;
16127;SDS011;8168;49.036;7.690;2023-02-07T00:04:55;3.53;;;2.10;;
16127;SDS011;8168;49.036;7.690;2023-02-07T00:07:26;2.70;;;2.10;;
16127;SDS011;8168;49.036;7.690;2023-02-07T00:09:57;2.43;;;2.00;;
16127;SDS011;8168;49.036;7.690;2023-02-07T00:12:28;3.87;;;2.80;;
16127;SDS011;8168;49.036;7.690;2023-02-07T00:14:59;3.47;;;2.00;;
16127;SDS011;8168;49.036;7.690;2023-02-07T00:17:30;1.33;;;1.23;;
16127;SDS011;8168;49.036;7.690;2023-02-07T00:20:01;2.17;;;1.60;;
16127;SDS011;8168;49.036;7.690;2023-02-07T00:22:32;4.07;;;2.37;;
16127;SDS011;8168;49.036;7.690;2023-02-07T00:25:03;2.77;;;2.30;;
16127;SDS011;8168;49.036;7.690;2023-02-07T00:27:34;3.57;;;2.30;;
16127;SDS011;8168;49.036;7.690;2023-02-07T00:30:05;1.90;;;1.63;;
16127;SDS011;8168;49.036;7.690;2023-02-07T00:32:36;3.33;;;2.80;;
16127;SDS011;8168;49.036;7.690;2023-02-07T00:35:07;3.23;;;2.53;;
16127;SDS011;8168;49.036;7.690;2023-02-07T00:37:39;2.13;;;1.63;;
16127;SDS011;8168;49.036;7.690;2023-02-07T00:40:10;2.30;;;1.40;;
16127;SDS011;8168;49.036;7.690;2023-02-07T00:42:41;3.57;;;2.63;;
16127;SDS011;8168;49.036;7.690;2023-02-07T00:45:12;2.33;;;2.13;;
16127;SDS011;8168;49.036;7.690;2023-02-07T00:47:43;3.40;;;2.60;;
16127;SDS011;8168;49.036;7.690;2023-02-07T00:50:14;3.27;;;2.37;;
16127;SDS011;8168;49.036;7.690;2023-02-07T00:52:45;3.80;;;2.70;;
16127;SDS011;8168;49.036;7.690;2023-02-07T00:55:16;2.77;;;2.10;;
16127;SDS011;8168;49.036;7.690;2023-02-07T00:57:47;3.00;;;2.37;;
16127;SDS011;8168;49.036;7.690;2023-02-07T01:00:18;4.47;;;3.00;;
16127;SDS011;8168;49.036;7.690;2023-02-07T01:02:49;2.83;;;2.33;;
16127;SDS011;8168;49.036;7.690;2023-02-07T01:05:20;1.93;;;1.80;;
16127;SDS011;8168;49.036;7.690;2023-02-07T01:07:51;5.20;;;2.90;;
16127;SDS011;8168;49.036;7.690;2023-02-07T01:10:22;3.43;;;2.33;;
16127;SDS011;8168;49.036;7.690;2023-02-07T01:12:53;3.03;;;2.40;;
16127;SDS011;8168;49.036;7.690;2023-02-07T01:15:25;5.73;;;2.90;;
16127;SDS011;8168;49.036;7.690;2023-02-07T01:17:56;4.50;;;3.13;;
16127;SDS011;8168;49.036;7.690;2023-02-07T01:20:27;1.83;;;1.73;;
16127;SDS011;8168;49.036;7.690;2023-02-07T01:22:58;5.13;;;2.83;;
16127;SDS011;8168;49.036;7.690;2023-02-07T01:25:29;3.97;;;1.97;;
16127;SDS011;8168;49.036;7.690;2023-02-07T01:28:00;2.97;;;1.77;;
16127;SDS011;8168;49.036;7.690;2023-02-07T01:30:31;4.33;;;2.30;;
16127;SDS011;8168;49.036;7.690;2023-02-07T01:33:02;2.93;;;2.47;;
16127;SDS011;8168;49.036;7.690;2023-02-07T01:35:33;3.20;;;2.40;;
16127;SDS011;8168;49.036;7.690;2023-02-07T01:38:04;2.70;;;2.50;;
16127;SDS011;8168;49.036;7.690;2023-02-07T01:40:36;4.93;;;2.40;;
16127;SDS011;8168;49.036;7.690;2023-02-07T01:43:12;3.70;;;2.50;;
16127;SDS011;8168;49.036;7.690;2023-02-07T01:45:51;2.23;;;1.93;;
16127;SDS011;8168;49.036;7.690;2023-02-07T01:48:24;5.37;;;3.33;;
16127;SDS011;8168;49.036;7.690;2023-02-07T01:51:02;3.03;;;1.90;;
16127;SDS011;8168;49.036;7.690;2023-02-07T01:53:35;1.57;;;1.30;;
16127;SDS011;8168;49.036;7.690;2023-02-07T01:56:08;1.67;;;1.47;;
16127;SDS011;8168;49.036;7.690;2023-02-07T01:58:42;3.70;;;2.60;;
16127;SDS011;8168;49.036;7.690;2023-02-07T02:01:16;3.43;;;3.00;;
16127;SDS011;8168;49.036;7.690;2023-02-07T02:03:50;3.83;;;3.00;;
16127;SDS011;8168;49.036;7.690;2023-02-07T02:06:24;3.47;;;2.90;;
16127;SDS011;8168;49.036;7.690;2023-02-07T02:08:57;8.70;;;3.87;;
16127;SDS011;8168;49.036;7.690;2023-02-07T02:11:52;3.90;;;2.97;;
16127;SDS011;8168;49.036;7.690;2023-02-07T02:31:08;4.33;;;3.13;;
16127;SDS011;8168;49.036;7.690;2023-02-07T02:34:18;3.83;;;2.63;;
16127;SDS011;8168;49.036;7.690;2023-02-07T02:37:42;3.07;;;2.60;;
16127;SDS011;8168;49.036;7.690;2023-02-07T02:48:46;3.53;;;2.23;;
16127;SDS011;8168;49.036;7.690;2023-02-07T02:51:18;5.23;;;3.43;;
16127;SDS011;8168;49.036;7.690;2023-02-07T02:53:53;4.67;;;3.47;;
16127;SDS011;8168;49.036;7.690;2023-02-07T02:56:31;5.20;;;2.50;;
16127;SDS011;8168;49.036;7.690;2023-02-07T02:59:19;5.83;;;3.47;;
16127;SDS011;8168;49.036;7.690;2023-02-07T03:02:50;6.80;;;3.97;;
16127;SDS011;8168;49.036;7.690;2023-02-07T03:11:22;5.53;;;3.60;;
16127;SDS011;8168;49.036;7.690;2023-02-07T03:16:33;4.97;;;2.97;;
16127;SDS011;8168;49.036;7.690;2023-02-07T03:19:14;3.10;;;2.30;;
16127;SDS011;8168;49.036;7.690;2023-02-07T03:21:52;4.93;;;3.03;;
16127;SDS011;8168;49.036;7.690;2023-02-07T03:24:28;6.43;;;4.00;;
16127;SDS011;8168;49.036;7.690;2023-02-07T03:27:06;4.50;;;3.33;;
16127;SDS011;8168;49.036;7.690;2023-02-07T03:29:40;6.37;;;3.40;;
16127;SDS011;8168;49.036;7.690;2023-02-07T03:32:13;4.73;;;3.03;;
16127;SDS011;8168;49.036;7.690;2023-02-07T03:34:57;4.97;;;3.00;;
16127;SDS011;8168;49.036;7.690;2023-02-07T03:37:32;2.93;;;2.40;;
16127;SDS011;8168;49.036;7.690;2023-02-07T03:40:06;6.63;;;3.97;;
16127;SDS011;8168;49.036;7.690;2023-02-07T03:45:10;4.83;;;3.57;;
16127;SDS011;8168;49.036;7.690;2023-02-07T03:47:44;5.13;;;3.77;;
16127;SDS011;8168;49.036;7.690;2023-02-07T03:50:16;5.97;;;4.43;;
16127;SDS011;8168;49.036;7.690;2023-02-07T03:52:46;8.13;;;4.40;;
16127;SDS011;8168;49.036;7.690;2023-02-07T03:55:17;5.63;;;3.73;;
16127;SDS011;8168;49.036;7.690;2023-02-07T03:57:48;6.40;;;3.70;;
16127;SDS011;8168;49.036;7.690;2023-02-07T04:00:19;6.07;;;3.73;;
16127;SDS011;8168;49.036;7.690;2023-02-07T04:02:50;5.83;;;3.57;;
16127;SDS011;8168;49.036;7.690;2023-02-07T04:05:21;5.97;;;3.77;;
16127;SDS011;8168;49.036;7.690;2023-02-07T04:07:52;5.67;;;3.70;;
16127;SDS011;8168;49.036;7.690;2023-02-07T04:10:23;6.93;;;3.87;;
16127;SDS011;8168;49.036;7.690;2023-02-07T04:12:54;5.33;;;4.17;;
16127;SDS011;8168;49.036;7.690;2023-02-07T04:15:25;5.83;;;3.87;;
16127;SDS011;8168;49.036;7.690;2023-02-07T04:17:56;4.60;;;3.67;;
16127;SDS011;8168;49.036;7.690;2023-02-07T04:20:27;7.07;;;4.90;;
16127;SDS011;8168;49.036;7.690;2023-02-07T04:22:58;9.47;;;3.57;;
16127;SDS011;8168;49.036;7.690;2023-02-07T04:25:29;6.53;;;3.83;;
16127;SDS011;8168;49.036;7.690;2023-02-07T04:28:00;4.77;;;3.30;;
16127;SDS011;8168;49.036;7.690;2023-02-07T04:30:31;6.73;;;4.80;;
16127;SDS011;8168;49.036;7.690;2023-02-07T04:33:02;7.73;;;5.13;;
16127;SDS011;8168;49.036;7.690;2023-02-07T04:35:34;9.73;;;5.30;;
16127;SDS011;8168;49.036;7.690;2023-02-07T04:38:05;7.73;;;4.37;;
16127;SDS011;8168;49.036;7.690;2023-02-07T04:40:37;9.33;;;5.37;;
16127;SDS011;8168;49.036;7.690;2023-02-07T04:43:08;7.67;;;4.57;;
16127;SDS011;8168;49.036;7.690;2023-02-07T04:45:39;9.13;;;5.07;;
16127;SDS011;8168;49.036;7.690;2023-02-07T04:48:10;7.23;;;4.47;;
16127;SDS011;8168;49.036;7.690;2023-02-07T04:50:41;7.30;;;4.10;;
16127;SDS011;8168;49.036;7.690;2023-02-07T04:53:11;6.37;;;4.60;;
16127;SDS011;8168;49.036;7.690;2023-02-07T04:55:46;8.63;;;4.30;;
16127;SDS011;8168;49.036;7.690;2023-02-07T04:58:21;9.10;;;5.00;;
16127;SDS011;8168;49.036;7.690;2023-02-07T05:00:52;8.37;;;4.83;;
16127;SDS011;8168;49.036;7.690;2023-02-07T05:03:23;8.33;;;4.67;;
16127;SDS011;8168;49.036;7.690;2023-02-07T05:05:54;8.97;;;4.77;;
16127;SDS011;8168;49.036;7.690;2023-02-07T05:08:25;9.60;;;4.70;;
16127;SDS011;8168;49.036;7.690;2023-02-07T05:10:56;5.47;;;4.30;;
16127;SDS011;8168;49.036;7.690;2023-02-07T05:13:27;6.30;;;4.80;;
16127;SDS011;8168;49.036;7.690;2023-02-07T05:16:00;6.60;;;4.20;;
16127;SDS011;8168;49.036;7.690;2023-02-07T05:18:31;7.13;;;3.87;;
16127;SDS011;8168;49.036;7.690;2023-02-07T05:21:03;8.40;;;5.00;;
16127;SDS011;8168;49.036;7.690;2023-02-07T05:23:34;7.83;;;5.10;;
16127;SDS011;8168;49.036;7.690;2023-02-07T05:26:05;5.23;;;4.10;;
16127;SDS011;8168;49.036;7.690;2023-02-07T05:28:36;8.30;;;4.70;;
16127;SDS011;8168;49.036;7.690;2023-02-07T05:31:07;7.53;;;4.03;;
16127;SDS011;8168;49.036;7.690;2023-02-07T05:33:38;5.27;;;3.83;;
16127;SDS011;8168;49.036;7.690;2023-02-07T05:36:09;5.60;;;3.90;;
16127;SDS011;8168;49.036;7.690;2023-02-07T05:38:40;5.67;;;4.33;;
16127;SDS011;8168;49.036;7.690;2023-02-07T05:41:11;8.40;;;4.23;;
16127;SDS011;8168;49.036;7.690;2023-02-07T05:43:42;10.13;;;4.40;;
16127;SDS011;8168;49.036;7.690;2023-02-07T05:46:13;7.83;;;4.00;;
16127;SDS011;8168;49.036;7.690;2023-02-07T05:48:44;7.40;;;4.33;;
16127;SDS011;8168;49.036;7.690;2023-02-07T05:51:15;5.63;;;4.23;;
16127;SDS011;8168;49.036;7.690;2023-02-07T05:53:46;6.93;;;4.43;;
16127;SDS011;8168;49.036;7.690;2023-02-07T05:56:17;7.03;;;4.23;;
16127;SDS011;8168;49.036;7.690;2023-02-07T05:58:48;6.30;;;3.73;;
16127;SDS011;8168;49.036;7.690;2023-02-07T06:01:19;6.17;;;4.60;;
16127;SDS011;8168;49.036;7.690;2023-02-07T06:03:50;7.93;;;3.87;;
16127;SDS011;8168;49.036;7.690;2023-02-07T06:06:21;8.70;;;5.27;;
16127;SDS011;8168;49.036;7.690;2023-02-07T06:08:52;7.17;;;4.90;;
16127;SDS011;8168;49.036;7.690;2023-02-07T06:11:22;7.53;;;4.83;;
16127;SDS011;8168;49.036;7.690;2023-02-07T06:13:54;10.77;;;5.13;;
16127;SDS011;8168;49.036;7.690;2023-02-07T06:16:25;8.53;;;5.33;;
16127;SDS011;8168;49.036;7.690;2023-02-07T06:18:55;8.93;;;5.83;;
16127;SDS011;8168;49.036;7.690;2023-02-07T06:21:26;9.77;;;5.80;;
16127;SDS011;8168;49.036;7.690;2023-02-07T06:23:57;9.37;;;5.23;;
16127;SDS011;8168;49.036;7.690;2023-02-07T06:26:28;8.20;;;5.63;;
16127;SDS011;8168;49.036;7.690;2023-02-07T06:29:00;10.17;;;5.13;;
16127;SDS011;8168;49.036;7.690;2023-02-07T06:31:31;9.07;;;4.90;;
16127;SDS011;8168;49.036;7.690;2023-02-07T06:34:02;7.30;;;5.40;;
16127;SDS011;8168;49.036;7.690;2023-02-07T06:36:33;7.23;;;5.07;;
16127;SDS011;8168;49.036;7.690;2023-02-07T06:39:04;7.77;;;5.27;;
16127;SDS011;8168;49.036;7.690;2023-02-07T06:41:35;7.33;;;5.00;;
16127;SDS011;8168;49.036;7.690;2023-02-07T06:44:06;8.50;;;5.37;;
16127;SDS011;8168;49.036;7.690;2023-02-07T06:46:37;12.27;;;6.13;;
16127;SDS011;8168;49.036;7.690;2023-02-07T06:49:09;10.13;;;5.97;;
16127;SDS011;8168;49.036;7.690;2023-02-07T06:51:40;7.90;;;5.23;;
16127;SDS011;8168;49.036;7.690;2023-02-07T06:54:11;8.63;;;5.63;;
16127;SDS011;8168;49.036;7.690;2023-02-07T06:56:42;12.07;;;6.97;;
16127;SDS011;8168;49.036;7.690;2023-02-07T06:59:13;13.03;;;8.40;;
16127;SDS011;8168;49.036;7.690;2023-02-07T07:01:44;14.80;;;8.67;;
16127;SDS011;8168;49.036;7.690;2023-02-07T07:04:15;14.97;;;8.77;;
16127;SDS011;8168;49.036;7.690;2023-02-07T07:06:47;13.07;;;9.67;;
16127;SDS011;8168;49.036;7.690;2023-02-07T07:09:18;13.50;;;6.97;;
16127;SDS011;8168;49.036;7.690;2023-02-07T07:11:49;9.47;;;6.47;;
16127;SDS011;8168;49.036;7.690;2023-02-07T07:14:20;15.13;;;8.27;;
16127;SDS011;8168;49.036;7.690;2023-02-07T07:16:51;9.83;;;6.83;;
16127;SDS011;8168;49.036;7.690;2023-02-07T07:19:22;13.10;;;7.90;;
16127;SDS011;8168;49.036;7.690;2023-02-07T07:21:53;11.80;;;6.30;;
16127;SDS011;8168;49.036;7.690;2023-02-07T07:24:24;8.17;;;5.73;;
16127;SDS011;8168;49.036;7.690;2023-02-07T07:26:56;12.73;;;6.57;;
16127;SDS011;8168;49.036;7.690;2023-02-07T07:29:27;12.23;;;5.90;;
16127;SDS011;8168;49.036;7.690;2023-02-07T07:31:58;10.17;;;6.63;;
16127;SDS011;8168;49.036;7.690;2023-02-07T07:34:29;12.40;;;7.17;;
16127;SDS011;8168;49.036;7.690;2023-02-07T07:37:00;14.27;;;7.87;;
16127;SDS011;8168;49.036;7.690;2023-02-07T07:39:31;15.90;;;8.67;;
16127;SDS011;8168;49.036;7.690;2023-02-07T07:42:03;8.73;;;6.43;;
16127;SDS011;8168;49.036;7.690;2023-02-07T07:44:34;15.27;;;6.57;;
16127;SDS011;8168;49.036;7.690;2023-02-07T07:47:05;7.07;;;4.77;;
16127;SDS011;8168;49.036;7.690;2023-02-07T07:49:36;9.10;;;4.13;;
16127;SDS011;8168;49.036;7.690;2023-02-07T07:52:07;8.87;;;5.80;;
16127;SDS011;8168;49.036;7.690;2023-02-07T07:54:38;23.13;;;9.00;;
16127;SDS011;8168;49.036;7.690;2023-02-07T07:57:09;14.53;;;9.20;;
16127;SDS011;8168;49.036;7.690;2023-02-07T07:59:40;10.63;;;6.30;;
16127;SDS011;8168;49.036;7.690;2023-02-07T08:02:11;9.10;;;5.77;;
16127;SDS011;8168;49.036;7.690;2023-02-07T08:04:42;7.47;;;5.40;;
16127;SDS011;8168;49.036;7.690;2023-02-07T08:07:13;9.63;;;6.30;;
16127;SDS011;8168;49.036;7.690;2023-02-07T08:09:44;11.40;;;6.23;;
16127;SDS011;8168;49.036;7.690;2023-02-07T08:12:15;13.00;;;6.77;;
16127;SDS011;8168;49.036;7.690;2023-02-07T08:14:46;10.60;;;6.30;;
16127;SDS011;8168;49.036;7.690;2023-02-07T08:17:17;9.50;;;6.73;;
16127;SDS011;8168;49.036;7.690;2023-02-07T08:19:48;10.93;;;6.53;;
16127;SDS011;8168;49.036;7.690;2023-02-07T08:22:19;6.77;;;4.27;;
16127;SDS011;8168;49.036;7.690;2023-02-07T08:24:50;8.40;;;5.77;;
16127;SDS011;8168;49.036;7.690;2023-02-07T08:27:21;10.20;;;6.37;;
16127;SDS011;8168;49.036;7.690;2023-02-07T08:29:52;8.93;;;5.77;;
16127;SDS011;8168;49.036;7.690;2023-02-07T08:32:23;9.17;;;4.63;;
16127;SDS011;8168;49.036;7.690;2023-02-07T08:34:54;8.20;;;5.27;;
16127;SDS011;8168;49.036;7.690;2023-02-07T08:37:25;8.57;;;5.47;;
16127;SDS011;8168;49.036;7.690;2023-02-07T08:39:56;10.43;;;6.00;;
16127;SDS011;8168;49.036;7.690;2023-02-07T08:42:27;8.97;;;6.00;;
16127;SDS011;8168;49.036;7.690;2023-02-07T08:44:58;9.23;;;6.07;;
16127;SDS011;8168;49.036;7.690;2023-02-07T08:47:30;15.63;;;7.73;;
16127;SDS011;8168;49.036;7.690;2023-02-07T08:50:01;12.13;;;6.93;;
16127;SDS011;8168;49.036;7.690;2023-02-07T08:52:32;6.40;;;4.93;;
16127;SDS011;8168;49.036;7.690;2023-02-07T08:55:03;12.33;;;5.90;;
16127;SDS011;8168;49.036;7.690;2023-02-07T08:57:35;7.50;;;4.37;;
16127;SDS011;8168;49.036;7.690;2023-02-07T09:00:06;9.03;;;5.97;;
16127;SDS011;8168;49.036;7.690;2023-02-07T09:02:37;8.63;;;4.83;;
16127;SDS011;8168;49.036;7.690;2023-02-07T09:05:09;9.57;;;6.17;;
16127;SDS011;8168;49.036;7.690;2023-02-07T09:07:40;10.93;;;5.70;;
16127;SDS011;8168;49.036;7.690;2023-02-07T09:10:11;9.87;;;5.93;;
16127;SDS011;8168;49.036;7.690;2023-02-07T09:12:43;7.67;;;5.10;;
16127;SDS011;8168;49.036;7.690;2023-02-07T09:15:14;8.63;;;5.83;;
16127;SDS011;8168;49.036;7.690;2023-02-07T09:17:45;6.50;;;3.93;;
16127;SDS011;8168;49.036;7.690;2023-02-07T09:20:16;8.90;;;5.60;;
16127;SDS011;8168;49.036;7.690;2023-02-07T09:22:47;10.47;;;4.67;;
16127;SDS011;8168;49.036;7.690;2023-02-07T09:25:37;9.27;;;6.10;;
16127;SDS011;8168;49.036;7.690;2023-02-07T09:28:08;7.23;;;5.47;;
16127;SDS011;8168;49.036;7.690;2023-02-07T09:30:40;9.67;;;7.00;;
16127;SDS011;8168;49.036;7.690;2023-02-07T09:33:12;4.97;;;3.70;;
16127;SDS011;8168;49.036;7.690;2023-02-07T09:35:45;12.03;;;7.17;;
16127;SDS011;8168;49.036;7.690;2023-02-07T09:38:20;8.30;;;4.77;;
16127;SDS011;8168;49.036;7.690;2023-02-07T09:40:54;9.47;;;5.67;;
16127;SDS011;8168;49.036;7.690;2023-02-07T09:43:31;9.50;;;5.47;;
16127;SDS011;8168;49.036;7.690;2023-02-07T09:46:18;9.03;;;5.07;;
16127;SDS011;8168;49.036;7.690;2023-02-07T09:49:25;7.60;;;4.83;;
16127;SDS011;8168;49.036;7.690;2023-02-07T09:52:10;8.63;;;4.70;;
16127;SDS011;8168;49.036;7.690;2023-02-07T09:54:48;7.13;;;4.47;;
16127;SDS011;8168;49.036;7.690;2023-02-07T09:57:23;8.10;;;5.90;;
16127;SDS011;8168;49.036;7.690;2023-02-07T10:00:22;9.70;;;6.37;;
16127;SDS011;8168;49.036;7.690;2023-02-07T10:03:15;8.57;;;5.83;;
16127;SDS011;8168;49.036;7.690;2023-02-07T10:05:59;12.77;;;5.90;;
16127;SDS011;8168;49.036;7.690;2023-02-07T10:08:33;9.43;;;5.63;;
16127;SDS011;8168;49.036;7.690;2023-02-07T10:22:40;7.70;;;4.83;;
16127;SDS011;8168;49.036;7.690;2023-02-07T10:31:14;7.33;;;5.50;;
16127;SDS011;8168;49.036;7.690;2023-02-07T10:34:20;3.10;;;2.50;;
16127;SDS011;8168;49.036;7.690;2023-02-07T10:36:47;7.17;;;4.77;;
16127;SDS011;8168;49.036;7.690;2023-02-07T10:39:33;8.77;;;5.07;;
16127;SDS011;8168;49.036;7.690;2023-02-07T10:42:11;7.57;;;5.20;;
16127;SDS011;8168;49.036;7.690;2023-02-07T10:44:44;9.30;;;5.33;;
16127;SDS011;8168;49.036;7.690;2023-02-07T10:47:15;13.70;;;6.13;;
16127;SDS011;8168;49.036;7.690;2023-02-07T10:49:47;7.73;;;5.23;;
16127;SDS011;8168;49.036;7.690;2023-02-07T10:55:00;7.77;;;5.47;;
16127;SDS011;8168;49.036;7.690;2023-02-07T10:57:33;8.63;;;5.90;;
16127;SDS011;8168;49.036;7.690;2023-02-07T11:00:16;7.20;;;5.00;;
16127;SDS011;8168;49.036;7.690;2023-02-07T11:03:04;9.13;;;5.60;;
16127;SDS011;8168;49.036;7.690;2023-02-07T11:05:54;7.43;;;5.00;;
16127;SDS011;8168;49.036;7.690;2023-02-07T11:08:30;7.53;;;4.80;;
16127;SDS011;8168;49.036;7.690;2023-02-07T11:13:50;8.13;;;4.90;;
16127;SDS011;8168;49.036;7.690;2023-02-07T11:16:23;8.83;;;5.63;;
16127;SDS011;8168;49.036;7.690;2023-02-07T11:18:56;9.53;;;5.10;;
16127;SDS011;8168;49.036;7.690;2023-02-07T11:21:28;6.73;;;4.93;;
16127;SDS011;8168;49.036;7.690;2023-02-07T11:24:06;8.53;;;5.47;;
16127;SDS011;8168;49.036;7.690;2023-02-07T11:27:01;6.07;;;5.20;;
16127;SDS011;8168;49.036;7.690;2023-02-07T11:29:37;6.43;;;4.33;;
16127;SDS011;8168;49.036;7.690;2023-02-07T11:32:16;7.30;;;5.13;;
16127;SDS011;8168;49.036;7.690;2023-02-07T11:37:27;5.47;;;4.50;;
16127;SDS011;8168;49.036;7.690;2023-02-07T11:43:02;6.53;;;5.10;;
16127;SDS011;8168;49.036;7.690;2023-02-07T11:45:45;7.07;;;4.73;;
16127;SDS011;8168;49.036;7.690;2023-02-07T11:48:25;8.83;;;5.00;;
16127;SDS011;8168;49.036;7.690;2023-02-07T11:50:58;6.47;;;5.27;;
16127;SDS011;8168;49.036;7.690;2023-02-07T11:56:03;5.57;;;4.03;;
16127;SDS011;8168;49.036;7.690;2023-02-07T11:58:35;8.83;;;4.93;;
16127;SDS011;8168;49.036;7.690;2023-02-07T12:01:12;7.37;;;5.10;;
16127;SDS011;8168;49.036;7.690;2023-02-07T12:03:55;6.73;;;4.70;;
16127;SDS011;8168;49.036;7.690;2023-02-07T12:06:32;7.40;;;4.70;;
16127;SDS011;8168;49.036;7.690;2023-02-07T12:11:55;9.10;;;5.20;;
16127;SDS011;8168;49.036;7.690;2023-02-07T12:14:40;6.77;;;5.43;;
16127;SDS011;8168;49.036;7.690;2023-02-07T12:17:16;9.83;;;5.43;;
16127;SDS011;8168;49.036;7.690;2023-02-07T12:19:53;7.27;;;5.00;;
16127;SDS011;8168;49.036;7.690;2023-02-07T12:22:29;6.53;;;4.50;;
16127;SDS011;8168;49.036;7.690;2023-02-07T12:25:15;7.77;;;5.20;;
16127;SDS011;8168;49.036;7.690;2023-02-07T12:28:03;6.20;;;4.73;;
16127;SDS011;8168;49.036;7.690;2023-02-07T12:30:45;6.00;;;4.17;;
16127;SDS011;8168;49.036;7.690;2023-02-07T12:34:02;6.90;;;5.03;;
16127;SDS011;8168;49.036;7.690;2023-02-07T12:36:32;8.63;;;4.80;;
16127;SDS011;8168;49.036;7.690;2023-02-07T12:39:10;6.97;;;5.07;;
16127;SDS011;8168;49.036;7.690;2023-02-07T12:41:45;5.43;;;4.83;;
16127;SDS011;8168;49.036;7.690;2023-02-07T12:44:23;7.70;;;4.80;;
16127;SDS011;8168;49.036;7.690;2023-02-07T12:47:00;9.60;;;6.27;;
16127;SDS011;8168;49.036;7.690;2023-02-07T13:12:03;8.00;;;4.57;;
16127;SDS011;8168;49.036;7.690;2023-02-07T13:14:59;7.60;;;5.13;;
16127;SDS011;8168;49.036;7.690;2023-02-07T13:20:21;6.70;;;4.87;;
16127;SDS011;8168;49.036;7.690;2023-02-07T13:23:20;4.50;;;2.93;;
16127;SDS011;8168;49.036;7.690;2023-02-07T13:25:58;5.93;;;4.60;;
16127;SDS011;8168;49.036;7.690;2023-02-07T13:34:16;7.63;;;4.30;;
16127;SDS011;8168;49.036;7.690;2023-02-07T13:36:50;8.27;;;5.40;;
16127;SDS011;8168;49.036;7.690;2023-02-07T13:42:11;6.20;;;4.57;;
16127;SDS011;8168;49.036;7.690;2023-02-07T13:44:57;4.13;;;3.23;;
16127;SDS011;8168;49.036;7.690;2023-02-07T13:52:44;6.87;;;4.23;;
16127;SDS011;8168;49.036;7.690;2023-02-07T13:57:48;4.90;;;3.77;;
16127;SDS011;8168;49.036;7.690;2023-02-07T14:03:27;6.73;;;4.37;;
16127;SDS011;8168;49.036;7.690;2023-02-07T14:06:34;4.87;;;3.77;;
16127;SDS011;8168;49.036;7.690;2023-02-07T14:11:56;10.23;;;5.07;;
16127;SDS011;8168;49.036;7.690;2023-02-07T14:14:31;7.47;;;4.57;;
16127;SDS011;8168;49.036;7.690;2023-02-07T14:17:11;7.27;;;4.47;;
16127;SDS011;8168;49.036;7.690;2023-02-07T14:19:46;7.63;;;4.73;;
16127;SDS011;8168;49.036;7.690;2023-02-07T14:22:22;8.10;;;5.37;;
16127;SDS011;8168;49.036;7.690;2023-02-07T14:28:06;8.40;;;5.00;;
16127;SDS011;8168;49.036;7.690;2023-02-07T14:33:33;7.03;;;5.17;;
16127;SDS011;8168;49.036;7.690;2023-02-07T14:36:23;8.43;;;4.90;;
16127;SDS011;8168;49.036;7.690;2023-02-07T14:39:03;7.73;;;4.67;;
16127;SDS011;8168;49.036;7.690;2023-02-07T14:41:50;9.90;;;4.60;;
16127;SDS011;8168;49.036;7.690;2023-02-07T14:46:52;7.67;;;4.83;;
16127;SDS011;8168;49.036;7.690;2023-02-07T14:51:59;6.83;;;4.90;;
16127;SDS011;8168;49.036;7.690;2023-02-07T15:00:30;7.97;;;5.33;;
16127;SDS011;8168;49.036;7.690;2023-02-07T15:03:08;6.50;;;4.57;;
16127;SDS011;8168;49.036;7.690;2023-02-07T15:05:52;8.77;;;5.67;;
16127;SDS011;8168;49.036;7.690;2023-02-07T15:08:31;9.57;;;5.80;;
16127;SDS011;8168;49.036;7.690;2023-02-07T15:11:15;9.03;;;5.57;;
16127;SDS011;8168;49.036;7.690;2023-02-07T15:13:46;7.07;;;5.10;;
16127;SDS011;8168;49.036;7.690;2023-02-07T15:16:20;5.23;;;4.20;;
16127;SDS011;8168;49.036;7.690;2023-02-07T15:19:30;7.17;;;5.40;;
16127;SDS011;8168;49.036;7.690;2023-02-07T15:22:04;6.93;;;5.20;;
16127;SDS011;8168;49.036;7.690;2023-02-07T15:24:39;7.97;;;5.67;;
16127;SDS011;8168;49.036;7.690;2023-02-07T15:27:19;8.90;;;5.97;;
16127;SDS011;8168;49.036;7.690;2023-02-07T15:29:52;9.27;;;5.50;;
16127;SDS011;8168;49.036;7.690;2023-02-07T15:32:27;8.33;;;5.57;;
16127;SDS011;8168;49.036;7.690;2023-02-07T15:35:16;9.27;;;5.33;;
16127;SDS011;8168;49.036;7.690;2023-02-07T15:37:48;15.73;;;9.00;;
16127;SDS011;8168;49.036;7.690;2023-02-07T15:40:22;7.43;;;5.57;;
16127;SDS011;8168;49.036;7.690;2023-02-07T15:42:57;7.03;;;5.20;;
16127;SDS011;8168;49.036;7.690;2023-02-07T15:45:28;7.83;;;4.80;;
16127;SDS011;8168;49.036;7.690;2023-02-07T15:48:02;8.10;;;5.83;;
16127;SDS011;8168;49.036;7.690;2023-02-07T15:50:38;5.83;;;4.70;;
16127;SDS011;8168;49.036;7.690;2023-02-07T15:53:14;8.87;;;5.90;;
16127;SDS011;8168;49.036;7.690;2023-02-07T15:55:51;8.50;;;5.40;;
16127;SDS011;8168;49.036;7.690;2023-02-07T15:58:24;8.97;;;5.07;;
16127;SDS011;8168;49.036;7.690;2023-02-07T16:01:13;6.50;;;4.43;;
16127;SDS011;8168;49.036;7.690;2023-02-07T16:03:45;9.57;;;5.77;;
16127;SDS011;8168;49.036;7.690;2023-02-07T16:08:50;6.17;;;4.80;;
16127;SDS011;8168;49.036;7.690;2023-02-07T16:16:58;7.07;;;5.00;;
16127;SDS011;8168;49.036;7.690;2023-02-07T16:19:30;6.83;;;5.37;;
16127;SDS011;8168;49.036;7.690;2023-02-07T16:22:03;6.73;;;4.80;;
16127;SDS011;8168;49.036;7.690;2023-02-07T16:24:38;4.07;;;3.60;;
16127;SDS011;8168;49.036;7.690;2023-02-07T16:27:29;7.03;;;4.40;;
16127;SDS011;8168;49.036;7.690;2023-02-07T16:30:02;10.67;;;4.97;;
16127;SDS011;8168;49.036;7.690;2023-02-07T16:32:34;9.47;;;5.50;;
16127;SDS011;8168;49.036;7.690;2023-02-07T16:35:09;6.60;;;4.77;;
16127;SDS011;8168;49.036;7.690;2023-02-07T16:37:52;6.23;;;4.23;;
16127;SDS011;8168;49.036;7.690;2023-02-07T16:40:23;7.17;;;4.53;;
16127;SDS011;8168;49.036;7.690;2023-02-07T16:42:55;10.53;;;5.77;;
16127;SDS011;8168;49.036;7.690;2023-02-07T16:45:28;6.60;;;5.10;;
16127;SDS011;8168;49.036;7.690;2023-02-07T16:47:59;7.80;;;5.00;;
16127;SDS011;8168;49.036;7.690;2023-02-07T16:50:29;8.53;;;5.80;;
16127;SDS011;8168;49.036;7.690;2023-02-07T16:53:00;10.60;;;6.27;;
16127;SDS011;8168;49.036;7.690;2023-02-07T16:55:32;7.70;;;5.30;;
16127;SDS011;8168;49.036;7.690;2023-02-07T16:58:04;11.90;;;6.20;;
16127;SDS011;8168;49.036;7.690;2023-02-07T17:00:36;11.07;;;6.13;;
16127;SDS011;8168;49.036;7.690;2023-02-07T17:03:11;10.70;;;5.47;;
16127;SDS011;8168;49.036;7.690;2023-02-07T17:05:43;11.47;;;6.23;;
16127;SDS011;8168;49.036;7.690;2023-02-07T17:08:18;15.07;;;7.17;;
16127;SDS011;8168;49.036;7.690;2023-02-07T17:10:59;20.20;;;9.30;;
16127;SDS011;8168;49.036;7.690;2023-02-07T17:13:32;19.70;;;9.50;;
16127;SDS011;8168;49.036;7.690;2023-02-07T17:16:03;13.87;;;6.67;;
16127;SDS011;8168;49.036;7.690;2023-02-07T17:18:34;9.07;;;7.10;;
16127;SDS011;8168;49.036;7.690;2023-02-07T17:21:05;15.20;;;8.40;;
16127;SDS011;8168;49.036;7.690;2023-02-07T17:23:37;18.30;;;10.00;;
16127;SDS011;8168;49.036;7.690;2023-02-07T17:26:10;15.07;;;8.80;;
16127;SDS011;8168;49.036;7.690;2023-02-07T17:28:46;11.17;;;7.23;;
16127;SDS011;8168;49.036;7.690;2023-02-07T17:31:17;9.37;;;6.27;;
16127;SDS011;8168;49.036;7.690;2023-02-07T17:33:48;7.93;;;5.20;;
16127;SDS011;8168;49.036;7.690;2023-02-07T17:36:20;8.33;;;5.30;;
16127;SDS011;8168;49.036;7.690;2023-02-07T17:38:51;10.30;;;7.10;;
16127;SDS011;8168;49.036;7.690;2023-02-07T17:41:22;9.20;;;5.70;;
16127;SDS011;8168;49.036;7.690;2023-02-07T17:43:53;8.37;;;5.73;;
16127;SDS011;8168;49.036;7.690;2023-02-07T17:46:25;7.70;;;5.57;;
16127;SDS011;8168;49.036;7.690;2023-02-07T17:48:56;8.50;;;5.93;;
16127;SDS011;8168;49.036;7.690;2023-02-07T17:51:27;7.10;;;5.37;;
16127;SDS011;8168;49.036;7.690;2023-02-07T17:53:58;8.50;;;4.77;;
16127;SDS011;8168;49.036;7.690;2023-02-07T17:56:30;8.93;;;5.03;;
16127;SDS011;8168;49.036;7.690;2023-02-07T17:59:03;5.90;;;4.17;;
16127;SDS011;8168;49.036;7.690;2023-02-07T18:01:35;6.60;;;5.00;;
16127;SDS011;8168;49.036;7.690;2023-02-07T18:04:06;6.23;;;4.70;;
16127;SDS011;8168;49.036;7.690;2023-02-07T18:06:37;7.03;;;5.00;;
16127;SDS011;8168;49.036;7.690;2023-02-07T18:09:12;7.47;;;4.70;;